Time;durP1;ratioP1;P1;durP2;ratioP2;P2;SDS_P1;SDS_P2;PMS_P1;PMS_P2;Temp;Humidity;BMP_temperature;BMP_pressure;BME280_temperature;BME280_humidity;BME280_pressure;Samples;Min_cycle;Max_cycle;Signal;HPM_P1;HPM_P2
2021/12/17 00:07:26;;;;;;;18.73;9.18;;;10.80;97.10;;;;;;5070565;28;20021;-76
2021/12/17 00:09:53;;;;;;;20.95;9.85;;;10.70;97.10;;;;;;5070540;28;20482;-76
2021/12/17 00:12:22;;;;;;;14.68;7.47;;;10.70;97.10;;;;;;5070583;28;20052;-76
2021/12/17 00:14:50;;;;;;;16.25;9.20;;;10.70;97.00;;;;;;5069213;28;20024;-76
2021/12/17 00:17:22;;;;;;;18.02;9.25;;;10.70;97.00;;;;;;5070487;28;20030;-76
2021/12/17 00:53:00;;;;;;;16.65;10.30;;;9.60;97.70;;;;;;5054784;28;20094;-77
2021/12/17 00:55:26;;;;;;;16.00;10.05;;;9.60;97.80;;;;;;5069954;28;20459;-74
2021/12/17 00:57:52;;;;;;;18.02;10.15;;;9.60;97.90;;;;;;5069577;28;20131;-73
2021/12/17 01:00:21;;;;;;;19.25;9.63;;;9.60;97.90;;;;;;5069778;28;20032;-76
2021/12/17 01:02:48;;;;;;;18.60;11.23;;;9.60;97.90;;;;;;5069760;28;20020;-77
2021/12/17 01:05:19;;;;;;;17.00;10.18;;;9.60;98.00;;;;;;5069707;28;20029;-75
2021/12/17 01:07:47;;;;;;;17.23;9.55;;;9.60;98.10;;;;;;5069546;28;20055;-75
2021/12/17 01:10:35;;;;;;;17.27;10.15;;;9.50;98.10;;;;;;5069562;28;20668;-77
2021/12/17 01:13:03;;;;;;;14.35;9.07;;;9.50;98.20;;;;;;5102251;28;20025;-76
2021/12/17 01:15:30;;;;;;;16.20;9.70;;;9.50;98.00;;;;;;5069604;28;20079;-74
2021/12/17 01:18:01;;;;;;;14.57;9.98;;;9.40;97.80;;;;;;5068251;28;20024;-74
2021/12/17 01:36:16;;;;;;;14.02;10.50;;;8.40;98.10;;;;;;5069640;28;20481;-77
2021/12/17 01:39:37;;;;;;;26.52;11.27;;;8.30;98.20;;;;;;5051253;28;20120;-75
2021/12/17 01:42:04;;;;;;;18.38;11.65;;;8.30;98.30;;;;;;5069053;28;20037;-75
2021/12/17 01:44:30;;;;;;;17.33;11.15;;;8.20;98.30;;;;;;5068998;28;20103;-74
2021/12/17 01:46:56;;;;;;;19.00;11.45;;;8.10;98.40;;;;;;5084886;28;20040;-75
2021/12/17 02:00:08;;;;;;;15.05;11.40;;;7.80;98.40;;;;;;5067371;28;20421;-75
2021/12/17 02:02:42;;;;;;;19.13;11.50;;;7.70;98.40;;;;;;5068648;28;20402;-74
2021/12/17 02:05:09;;;;;;;17.48;11.55;;;7.60;98.40;;;;;;5068686;28;20017;-76
2021/12/17 02:07:34;;;;;;;17.80;12.30;;;7.50;98.50;;;;;;5067239;28;20313;-78
2021/12/17 02:12:42;;;;;;;14.20;9.60;;;7.50;98.70;;;;;;5068600;28;20064;-73
2021/12/17 02:20:47;;;;;;;17.63;12.75;;;7.30;98.80;;;;;;5068369;28;20036;-76
2021/12/17 02:28:41;;;;;;;17.05;11.00;;;7.20;98.90;;;;;;5068327;28;20037;-73
2021/12/17 02:28:57;;;;;;;14.43;10.48;;;7.10;98.70;;;;;;5068427;28;20040;-77
2021/12/17 02:31:31;;;;;;;18.48;10.80;;;7.10;98.80;;;;;;5068250;28;20475;-78
2021/12/17 02:34:03;;;;;;;18.15;9.82;;;7.00;98.80;;;;;;5066917;28;20601;-76
2021/12/17 02:36:32;;;;;;;14.30;9.70;;;6.90;98.90;;;;;;5068228;28;20379;-77
2021/12/17 02:47:18;;;;;;;15.15;10.18;;;6.50;98.90;;;;;;5066836;28;20039;-74
2021/12/17 02:49:46;;;;;;;21.48;11.95;;;6.40;99.10;;;;;;5066632;28;20037;-77
2021/12/17 02:52:13;;;;;;;15.98;11.82;;;6.40;99.30;;;;;;5067996;28;20035;-76
2021/12/17 02:54:39;;;;;;;17.85;11.00;;;6.40;99.40;;;;;;5066579;28;20391;-79
2021/12/17 02:57:06;;;;;;;;;;;6.40;99.40;;;;;;5067991;28;20104;-77
2021/12/17 02:59:33;;;;;;;16.63;9.57;;;6.40;99.40;;;;;;5067688;28;19909;-76
2021/12/17 03:02:00;;;;;;;17.65;10.57;;;6.40;99.30;;;;;;5066036;28;20020;-77
2021/12/17 03:04:28;;;;;;;16.38;10.25;;;6.40;99.20;;;;;;5066480;28;20029;-76
2021/12/17 03:06:55;;;;;;;15.73;9.13;;;6.40;99.20;;;;;;5067679;28;20056;-78
2021/12/17 03:09:31;;;;;;;16.20;10.60;;;6.40;99.30;;;;;;5067680;28;20493;-75
2021/12/17 03:11:57;;;;;;;21.58;10.32;;;6.30;99.40;;;;;;5067684;28;20398;-76
2021/12/17 03:14:25;;;;;;;9.38;7.15;;;6.30;99.40;;;;;;5066282;28;20047;-76
2021/12/17 03:17:01;;;;;;;14.98;7.95;;;6.30;99.40;;;;;;5066424;28;20060;-75
2021/12/17 03:23:26;;;;;;;9.93;7.53;;;6.20;99.30;;;;;;5067709;28;20021;-77
2021/12/17 03:24:56;;;;;;;15.90;9.65;;;6.10;99.20;;;;;;5067850;28;20079;-78
2021/12/17 03:27:22;;;;;;;16.15;10.57;;;6.00;99.30;;;;;;5067404;28;20057;-76
2021/12/17 03:29:47;;;;;;;17.88;10.40;;;6.00;99.40;;;;;;5066276;28;20103;-75
2021/12/17 03:32:13;;;;;;;15.32;10.32;;;6.00;99.50;;;;;;5067674;28;20033;-75
2021/12/17 03:34:39;;;;;;;13.18;8.85;;;6.10;99.50;;;;;;5067505;28;20028;-75
2021/12/17 03:37:04;;;;;;;16.73;9.43;;;6.00;99.40;;;;;;5067487;28;20035;-76
2021/12/17 03:39:31;;;;;;;14.63;9.68;;;6.00;99.40;;;;;;5067318;28;20043;-77
2021/12/17 03:41:57;;;;;;;16.13;11.00;;;5.90;99.40;;;;;;5067348;28;20031;-77
2021/12/17 03:44:24;;;;;;;16.10;10.65;;;5.90;99.40;;;;;;5067378;28;20052;-79
2021/12/17 03:46:50;;;;;;;;;;;5.90;99.60;;;;;;5067736;28;20029;-76
2021/12/17 03:49:16;;;;;;;18.42;11.13;;;5.90;99.50;;;;;;5067280;28;19940;-75
2021/12/17 03:51:52;;;;;;;14.27;9.20;;;5.90;99.50;;;;;;5067420;28;20493;-76
2021/12/17 03:54:18;;;;;;;15.52;10.75;;;5.90;99.60;;;;;;5065876;28;20033;-76
2021/12/17 03:56:44;;;;;;;15.63;9.82;;;5.90;99.50;;;;;;5067067;28;20036;-77
2021/12/17 03:59:10;;;;;;;11.95;8.88;;;5.80;99.40;;;;;;5067119;28;20029;-76
2021/12/17 04:01:40;;;;;;;12.55;8.50;;;5.80;99.40;;;;;;5066053;28;20369;-77
2021/12/17 04:04:07;;;;;;;13.80;9.73;;;5.70;99.30;;;;;;5067204;28;20078;-74
2021/12/17 04:06:33;;;;;;;15.40;11.23;;;5.60;99.30;;;;;;5065863;28;20448;-76
2021/12/17 04:08:59;;;;;;;14.77;9.63;;;5.60;99.30;;;;;;5067081;28;20033;-78
2021/12/17 04:11:25;;;;;;;15.90;8.82;;;5.50;99.30;;;;;;5068043;28;20040;-77
2021/12/17 04:13:56;;;;;;;14.30;9.45;;;5.40;99.40;;;;;;5070928;28;20035;-75
2021/12/17 04:16:28;;;;;;;19.98;10.43;;;5.40;99.50;;;;;;5070700;28;20032;-78
2021/12/17 04:18:54;;;;;;;16.20;9.48;;;5.40;99.60;;;;;;5069324;28;20495;-76
2021/12/17 04:21:21;;;;;;;15.20;9.55;;;5.30;99.50;;;;;;5052570;28;20033;-79
2021/12/17 04:23:48;;;;;;;16.00;9.65;;;5.30;99.60;;;;;;5071166;28;20027;-77
2021/12/17 04:26:18;;;;;;;15.43;10.13;;;5.30;99.60;;;;;;5070603;28;20513;-77
2021/12/17 04:28:48;;;;;;;18.52;10.38;;;5.30;99.60;;;;;;5070497;28;20082;-76
2021/12/17 04:31:15;;;;;;;13.88;9.63;;;5.30;99.80;;;;;;5069198;28;20558;-76
2021/12/17 04:33:42;;;;;;;16.38;10.30;;;5.30;99.80;;;;;;5069083;28;20078;-76
2021/12/17 04:36:11;;;;;;;16.63;9.85;;;5.40;99.70;;;;;;5070363;28;20029;-76
2021/12/17 04:38:37;;;;;;;17.27;11.02;;;5.40;99.70;;;;;;5069060;28;20425;-76
2021/12/17 04:41:40;;;;;;;22.77;11.82;;;5.40;99.70;;;;;;5070379;28;20134;-75
2021/12/17 04:57:12;;;;;;;13.73;7.85;;;5.40;99.70;;;;;;5070160;28;20025;-78
2021/12/17 04:57:52;;;;;;;19.95;10.90;;;5.20;99.50;;;;;;5070062;28;20056;-76
2021/12/17 05:00:25;;;;;;;17.95;10.95;;;5.20;99.60;;;;;;5070003;28;20477;-76
2021/12/17 05:02:54;;;;;;;21.65;11.07;;;5.10;99.50;;;;;;5069982;28;20376;-77
2021/12/17 05:05:25;;;;;;;20.65;10.02;;;5.20;99.50;;;;;;5068364;28;20287;-77
2021/12/17 05:07:59;;;;;;;14.60;10.02;;;5.20;99.60;;;;;;5069839;28;20383;-76
2021/12/17 05:18:28;;;;;;;17.77;10.00;;;5.10;99.60;;;;;;5069742;28;20043;-77
2021/12/17 05:21:01;;;;;;;19.42;11.23;;;5.10;99.50;;;;;;5069699;28;20032;-78
2021/12/17 05:23:32;;;;;;;20.08;10.93;;;5.10;99.50;;;;;;5067957;28;20057;-77
2021/12/17 05:26:06;;;;;;;17.02;10.55;;;5.10;99.40;;;;;;5068280;28;20028;-77
2021/12/17 05:28:33;;;;;;;18.52;11.35;;;5.00;99.30;;;;;;5069490;28;20028;-77
2021/12/17 05:30:59;;;;;;;19.73;10.88;;;5.00;99.30;;;;;;5069398;28;20439;-77
2021/12/17 05:33:26;;;;;;;16.85;10.35;;;5.00;99.30;;;;;;5069429;28;20092;-78
2021/12/17 05:35:53;;;;;;;17.50;9.82;;;5.00;99.30;;;;;;5068064;28;20104;-79
2021/12/17 05:38:21;;;;;;;15.48;9.10;;;5.00;99.40;;;;;;5067602;28;20024;-76
2021/12/17 05:40:47;;;;;;;18.27;9.85;;;4.90;99.40;;;;;;5069107;28;20043;-76
2021/12/17 05:43:15;;;;;;;14.48;8.80;;;4.90;99.40;;;;;;5068938;28;20025;-75
2021/12/17 05:48:10;;;;;;;19.02;10.52;;;4.80;99.40;;;;;;5069178;28;20059;-74
2021/12/17 05:50:38;;;;;;;17.00;11.15;;;4.70;99.50;;;;;;5068965;28;20025;-77
2021/12/17 05:53:05;;;;;;;17.80;10.00;;;4.70;99.60;;;;;;5069035;28;20035;-77
2021/12/17 05:55:31;;;;;;;15.70;9.13;;;4.70;99.60;;;;;;5068770;28;20053;-77
2021/12/17 05:57:57;;;;;;;;;;;4.70;99.60;;;;;;5051293;28;20413;-78
2021/12/17 06:00:23;;;;;;;16.13;9.32;;;4.60;99.40;;;;;;5068871;28;19967;-76
2021/12/17 06:02:50;;;;;;;12.13;8.35;;;4.50;99.30;;;;;;5067557;28;20067;-75
2021/12/17 06:05:17;;;;;;;16.20;8.90;;;4.40;99.40;;;;;;5068605;28;20019;-76
2021/12/17 06:07:42;;;;;;;18.00;9.82;;;4.30;99.50;;;;;;5068753;28;20029;-76
2021/12/17 06:10:09;;;;;;;15.23;8.27;;;4.30;99.40;;;;;;5068669;28;20154;-74
2021/12/17 06:12:37;;;;;;;20.20;9.65;;;4.20;99.30;;;;;;5050942;28;20032;-77
2021/12/17 06:15:08;;;;;;;18.85;9.88;;;4.20;99.30;;;;;;5068485;28;20024;-77
2021/12/17 06:17:34;;;;;;;18.50;9.80;;;4.20;99.20;;;;;;5068191;28;20416;-77
2021/12/17 06:20:00;;;;;;;20.83;10.65;;;4.20;99.30;;;;;;5067139;28;20153;-77
2021/12/17 06:22:26;;;;;;;21.52;11.68;;;4.20;99.30;;;;;;5068539;28;20689;-76
2021/12/17 06:24:52;;;;;;;19.40;11.82;;;4.20;99.40;;;;;;5066991;28;20052;-75
2021/12/17 06:27:19;;;;;;;19.35;10.40;;;4.20;99.60;;;;;;5068528;28;20158;-78
2021/12/17 06:29:46;;;;;;;19.27;11.65;;;4.20;99.60;;;;;;5068133;28;20042;-75
2021/12/17 06:32:12;;;;;;;;;;;4.20;99.60;;;;;;5068741;28;20117;-75
2021/12/17 06:34:38;;;;;;;18.73;8.75;;;4.20;99.60;;;;;;5067804;28;19946;-77
2021/12/17 06:37:05;;;;;;;16.02;9.23;;;4.20;99.50;;;;;;5066512;28;20035;-75
2021/12/17 06:39:30;;;;;;;;;;;4.30;99.60;;;;;;5067200;28;20035;-75
2021/12/17 06:41:57;;;;;;;20.38;9.55;;;4.30;99.60;;;;;;5100879;28;20269;-76
2021/12/17 06:44:25;;;;;;;18.42;10.63;;;4.30;99.60;;;;;;5068125;28;20023;-77
2021/12/17 06:49:28;;;;;;;16.95;9.13;;;4.30;99.50;;;;;;5067893;28;20032;-75
2021/12/17 07:09:14;;;;;;;19.13;10.13;;;4.30;99.50;;;;;;5067799;28;20035;-75
2021/12/17 07:10:47;;;;;;;18.17;10.77;;;4.30;99.50;;;;;;5067268;28;20492;-78
2021/12/17 07:34:13;;;;;;;17.77;8.52;;;4.00;99.50;;;;;;5067752;28;20277;-75
2021/12/17 07:38:35;;;;;;;16.38;9.10;;;4.00;99.50;;;;;;5067511;28;20035;-79
2021/12/17 07:39:45;;;;;;;18.92;8.93;;;3.90;99.40;;;;;;5068401;28;20033;-76
2021/12/17 07:42:11;;;;;;;18.40;9.63;;;3.80;99.40;;;;;;5067385;28;20120;-77
2021/12/17 07:44:37;;;;;;;16.17;8.75;;;3.80;99.60;;;;;;5067226;28;20104;-75
2021/12/17 07:47:03;;;;;;;17.73;8.40;;;3.70;99.60;;;;;;5068808;28;20094;-75
2021/12/17 07:49:29;;;;;;;14.13;8.68;;;3.70;99.60;;;;;;5070963;28;20024;-75
2021/12/17 07:51:54;;;;;;;16.40;7.85;;;3.70;99.60;;;;;;5069795;28;20035;-77
2021/12/17 07:54:20;;;;;;;15.05;8.50;;;3.70;99.60;;;;;;5071448;28;20139;-78
2021/12/17 07:56:46;;;;;;;15.50;8.95;;;3.70;99.50;;;;;;5070467;28;20085;-75
2021/12/17 07:59:13;;;;;;;18.80;9.20;;;3.70;99.40;;;;;;5070374;28;20408;-77
2021/12/17 08:01:39;;;;;;;16.33;9.52;;;3.70;99.40;;;;;;5070564;28;20159;-77
2021/12/17 08:04:06;;;;;;;22.52;9.70;;;3.80;99.30;;;;;;5069312;28;20176;-79
2021/12/17 08:06:34;;;;;;;12.00;8.50;;;3.70;99.20;;;;;;5070644;28;20032;-77
2021/12/17 08:09:00;;;;;;;18.65;9.32;;;3.70;99.20;;;;;;5070756;28;20356;-76
2021/12/17 08:11:27;;;;;;;15.20;9.32;;;3.70;99.20;;;;;;5070513;28;20036;-76
2021/12/17 08:13:55;;;;;;;18.55;9.45;;;3.60;99.30;;;;;;5070630;28;20024;-76
2021/12/17 08:27:09;;;;;;;18.00;8.77;;;3.50;99.40;;;;;;5070362;28;20421;-79
2021/12/17 08:29:51;;;;;;;17.13;9.95;;;3.50;99.50;;;;;;5068651;28;20028;-78
2021/12/17 08:32:17;;;;;;;19.10;9.32;;;3.60;99.50;;;;;;5053978;28;20032;-77
2021/12/17 08:34:43;;;;;;;17.58;11.25;;;3.60;99.50;;;;;;5068893;28;20039;-76
2021/12/17 08:37:10;;;;;;;16.35;8.95;;;3.60;99.50;;;;;;5068364;28;20467;-77
2021/12/17 08:39:37;;;;;;;21.70;10.10;;;3.70;99.60;;;;;;5069721;28;20025;-75
2021/12/17 08:42:03;;;;;;;17.92;10.15;;;3.70;99.60;;;;;;5069998;28;20318;-76
2021/12/17 08:44:29;;;;;;;17.40;8.98;;;3.80;99.60;;;;;;5069841;28;20028;-77
2021/12/17 08:46:55;;;;;;;17.02;9.48;;;3.80;99.50;;;;;;5068331;28;20112;-75
2021/12/17 08:49:21;;;;;;;18.23;9.82;;;3.80;99.50;;;;;;5069246;28;20025;-75
2021/12/17 08:51:47;;;;;;;18.23;8.82;;;3.90;99.60;;;;;;5068364;28;20036;-73
2021/12/17 08:54:13;;;;;;;22.17;10.68;;;3.90;99.50;;;;;;5068201;28;20119;-76
2021/12/17 08:56:45;;;;;;;21.02;9.10;;;3.90;99.60;;;;;;5068154;28;20163;-74
2021/12/17 08:59:14;;;;;;;22.65;11.73;;;4.00;99.60;;;;;;5068091;28;20037;-78
2021/12/17 09:01:40;;;;;;;29.35;13.25;;;4.00;99.60;;;;;;5069205;28;20024;-76
2021/12/17 09:04:06;;;;;;;24.85;11.25;;;4.10;99.60;;;;;;5069074;28;20035;-77
2021/12/17 09:06:32;;;;;;;24.10;11.02;;;4.10;99.80;;;;;;5067673;28;20368;-77
2021/12/17 09:08:58;;;;;;;21.08;9.98;;;4.30;99.90;;;;;;5067449;28;20025;-77
2021/12/17 09:11:26;;;;;;;;;;;4.50;99.90;;;;;;5069570;28;20036;-75
2021/12/17 09:13:52;;;;;;;;;;;4.70;99.90;;;;;;5069388;28;19995;-77
2021/12/17 09:16:20;;;;;;;17.52;8.25;;;4.90;99.90;;;;;;5069593;28;19945;-76
2021/12/17 09:18:51;;;;;;;17.15;8.88;;;5.10;99.90;;;;;;5068943;28;20082;-76
2021/12/17 09:21:18;;;;;;;32.40;14.30;;;5.10;99.80;;;;;;5068772;28;20082;-76
2021/12/17 09:23:45;;;;;;;31.75;14.13;;;5.10;99.60;;;;;;5064843;28;20025;-76
2021/12/17 09:26:15;;;;;;;23.05;11.73;;;5.20;99.70;;;;;;5067512;28;20036;-76
2021/12/17 09:28:41;;;;;;;30.90;13.40;;;5.30;99.80;;;;;;5067159;28;20032;-76
2021/12/17 09:31:11;;;;;;;26.17;12.43;;;5.50;99.90;;;;;;5068416;28;20031;-77
2021/12/17 09:33:38;;;;;;;24.88;10.85;;;5.60;99.80;;;;;;5068661;28;20071;-77
2021/12/17 09:36:05;;;;;;;21.27;10.15;;;5.80;99.80;;;;;;5050577;28;20360;-76
2021/12/17 09:38:31;;;;;;;24.58;10.15;;;5.90;99.90;;;;;;5068242;28;20125;-78
2021/12/17 09:40:57;;;;;;;30.40;13.23;;;6.00;99.80;;;;;;5068577;28;20017;-76
2021/12/17 09:43:23;;;;;;;24.23;11.55;;;6.10;99.90;;;;;;5067187;28;20076;-77
2021/12/17 09:45:49;;;;;;;25.40;11.35;;;6.30;99.90;;;;;;5067108;28;20020;-78
2021/12/17 09:48:14;;;;;;;26.92;10.60;;;6.30;99.70;;;;;;5068381;28;20023;-76
2021/12/17 09:50:41;;;;;;;28.70;13.30;;;6.50;99.70;;;;;;5067980;28;20059;-75
2021/12/17 09:53:07;;;;;;;32.05;13.05;;;6.70;99.90;;;;;;5066771;28;20091;-77
2021/12/17 09:55:33;;;;;;;33.88;14.77;;;6.80;99.40;;;;;;5067808;28;20337;-76
2021/12/17 09:57:59;;;;;;;31.42;15.15;;;6.80;98.80;;;;;;5067684;28;20424;-77
2021/12/17 10:00:26;;;;;;;36.83;16.08;;;6.70;98.60;;;;;;5065003;28;20036;-76
2021/12/17 10:02:53;;;;;;;23.95;12.32;;;6.70;99.00;;;;;;5065981;28;20115;-77
2021/12/17 10:05:29;;;;;;;;;;;7.10;99.90;;;;;;5066707;28;20020;-77
2021/12/17 10:08:01;;;;;;;20.77;9.88;;;7.80;99.90;;;;;;5062159;28;19910;-77
2021/12/17 10:10:42;;;;;;;19.00;9.65;;;8.50;99.90;;;;;;5065709;28;20035;-77
2021/12/17 10:13:16;;;;;;;20.02;9.18;;;9.20;99.90;;;;;;5065395;28;20045;-77
2021/12/17 10:15:45;;;;;;;22.17;9.70;;;9.90;99.90;;;;;;5067393;28;20107;-77
2021/12/17 10:18:11;;;;;;;16.70;8.85;;;10.40;99.80;;;;;;5067090;28;20052;-77
2021/12/17 10:20:52;;;;;;;25.40;9.00;;;10.90;99.40;;;;;;5065673;28;20052;-77
2021/12/17 10:23:21;;;;;;;22.77;10.43;;;11.30;98.90;;;;;;5063713;28;20025;-77
2021/12/17 10:25:48;;;;;;;22.08;10.77;;;11.70;98.30;;;;;;5051679;28;20027;-77
2021/12/17 10:28:14;;;;;;;25.58;10.52;;;12.00;97.70;;;;;;5051331;28;20169;-77
2021/12/17 10:30:43;;;;;;;21.05;8.48;;;12.20;97.20;;;;;;5069248;28;20037;-76
2021/12/17 10:33:14;;;;;;;20.58;8.57;;;12.40;96.60;;;;;;5070011;28;20739;-77
2021/12/17 10:35:46;;;;;;;17.90;8.25;;;12.50;96.20;;;;;;5067580;28;20459;-74
2021/12/17 10:38:15;;;;;;;17.25;9.00;;;12.80;96.20;;;;;;5067064;28;20055;-77
2021/12/17 10:40:59;;;;;;;21.30;10.00;;;13.00;95.80;;;;;;5069298;28;20016;-75
2021/12/17 10:43:38;;;;;;;26.17;11.90;;;13.30;95.70;;;;;;5067500;28;20023;-76
2021/12/17 10:46:22;;;;;;;27.25;11.52;;;13.60;95.40;;;;;;5069793;28;20545;-77
2021/12/17 10:49:17;;;;;;;26.80;9.57;;;13.90;95.00;;;;;;5068819;28;20025;-77
2021/12/17 10:51:47;;;;;;;13.85;7.05;;;14.00;94.40;;;;;;5064603;28;20119;-77
2021/12/17 10:54:21;;;;;;;15.27;7.18;;;14.20;94.10;;;;;;5061944;28;20021;-73
2021/12/17 10:56:49;;;;;;;16.33;7.05;;;14.40;93.50;;;;;;5068006;28;20032;-77
2021/12/17 10:59:21;;;;;;;10.40;6.05;;;14.50;93.10;;;;;;5067480;28;20028;-75
2021/12/17 11:01:54;;;;;;;11.70;5.45;;;14.60;92.60;;;;;;5063298;28;20455;-73
2021/12/17 11:04:23;;;;;;;10.30;5.88;;;14.60;91.80;;;;;;5068513;28;20016;-77
2021/12/17 11:06:59;;;;;;;12.98;5.97;;;14.50;91.10;;;;;;5068445;28;20459;-77
2021/12/17 11:09:36;;;;;;;11.60;5.63;;;14.40;91.00;;;;;;5067116;28;20162;-76
2021/12/17 11:12:26;;;;;;;9.98;4.70;;;14.50;91.10;;;;;;5068467;28;20025;-74
2021/12/17 11:14:53;;;;;;;14.05;6.35;;;14.50;90.90;;;;;;5065408;28;20063;-75
2021/12/17 11:17:23;;;;;;;12.48;6.40;;;14.70;91.00;;;;;;5047094;28;20032;-75
2021/12/17 11:19:54;;;;;;;15.55;6.95;;;14.80;90.80;;;;;;5067236;28;20028;-76
2021/12/17 11:22:23;;;;;;;12.77;6.53;;;15.00;90.50;;;;;;5068237;28;20020;-77
2021/12/17 11:24:50;;;;;;;14.05;7.60;;;15.10;90.50;;;;;;5064959;28;20352;-76
2021/12/17 11:27:16;;;;;;;19.50;8.45;;;15.20;89.90;;;;;;5066982;28;20367;-75
2021/12/17 11:30:05;;;;;;;15.07;7.72;;;15.30;89.00;;;;;;5068633;28;20024;-75
2021/12/17 11:32:31;;;;;;;15.15;7.43;;;15.20;88.00;;;;;;5065802;28;20486;-76
2021/12/17 11:34:59;;;;;;;17.00;8.55;;;15.30;88.10;;;;;;5051178;28;20033;-75
2021/12/17 11:37:26;;;;;;;20.88;9.52;;;15.40;87.40;;;;;;5068308;28;20021;-77
2021/12/17 11:40:02;;;;;;;15.82;7.53;;;15.40;86.70;;;;;;5068224;28;20035;-77
2021/12/17 11:43:01;;;;;;;17.27;8.82;;;15.50;86.30;;;;;;5067061;28;20041;-78
2021/12/17 11:45:29;;;;;;;17.35;8.98;;;15.60;85.90;;;;;;5056005;28;20073;-76
2021/12/17 11:48:18;;;;;;;18.63;10.55;;;15.70;86.40;;;;;;5067052;28;20078;-76
2021/12/17 11:50:46;;;;;;;24.95;12.32;;;15.80;85.60;;;;;;5068520;28;20021;-75
2021/12/17 11:53:30;;;;;;;20.90;10.32;;;15.90;85.60;;;;;;5067431;28;20027;-75
2021/12/17 11:56:02;;;;;;;20.60;9.18;;;15.90;85.10;;;;;;5065763;28;20021;-75
2021/12/17 11:58:48;;;;;;;17.95;9.88;;;15.90;85.50;;;;;;5064278;28;20685;-76
2021/12/17 12:01:46;;;;;;;21.67;9.97;;;16.10;85.60;;;;;;5064778;28;20028;-77
2021/12/17 12:04:21;;;;;;;;;;;16.30;85.20;;;;;;5053128;28;20039;-76
2021/12/17 12:07:09;;;;;;;20.05;10.43;;;16.40;86.10;;;;;;5058468;28;19908;-76
2021/12/17 12:10:08;;;;;;;23.35;11.90;;;16.50;85.10;;;;;;5067970;28;20016;-75
2021/12/17 12:12:34;;;;;;;22.55;12.02;;;16.50;84.30;;;;;;5064768;28;20485;-75
2021/12/17 12:15:32;;;;;;;21.55;11.82;;;16.50;84.30;;;;;;5066001;28;20025;-76
2021/12/17 12:18:01;;;;;;;20.30;11.38;;;16.50;83.50;;;;;;5030899;28;20115;-75
2021/12/17 12:20:58;;;;;;;24.75;12.45;;;16.50;83.70;;;;;;5064995;28;20020;-74
2021/12/17 12:23:32;;;;;;;20.98;10.63;;;16.60;83.10;;;;;;5082910;28;20037;-75
2021/12/17 12:28:45;;;;;;;25.65;12.90;;;16.40;81.80;;;;;;5057275;28;20032;-76
2021/12/17 12:31:12;;;;;;;30.85;14.07;;;16.10;80.80;;;;;;5057230;28;20109;-80
2021/12/17 12:34:04;;;;;;;30.55;15.23;;;15.60;80.30;;;;;;5067562;28;20163;-77
2021/12/17 12:36:57;;;;;;;30.60;13.65;;;15.00;80.50;;;;;;5067799;28;20049;-78
2021/12/17 12:39:25;;;;;;;25.27;12.43;;;14.40;80.90;;;;;;5072117;28;20438;-78
2021/12/17 12:42:03;;;;;;;25.63;13.05;;;14.00;81.30;;;;;;5070773;28;20055;-75
2021/12/17 12:44:47;;;;;;;31.05;14.77;;;13.50;81.60;;;;;;5070262;28;20099;-79
2021/12/17 12:47:29;;;;;;;53.78;25.05;;;13.20;82.00;;;;;;5071034;28;20028;-80
2021/12/17 12:50:08;;;;;;;42.35;16.92;;;12.90;82.60;;;;;;5062077;28;20039;-78
2021/12/17 12:52:45;;;;;;;36.80;15.90;;;12.60;83.20;;;;;;5095375;28;20029;-79
2021/12/17 12:55:34;;;;;;;40.00;15.90;;;12.40;83.60;;;;;;5066919;28;20064;-79
2021/12/17 12:58:07;;;;;;;35.78;14.98;;;12.20;84.10;;;;;;5069754;28;20064;-76
2021/12/17 13:00:38;;;;;;;26.65;13.82;;;12.10;84.40;;;;;;5051385;28;20172;-73
2021/12/17 13:03:28;;;;;;;29.67;11.80;;;12.00;84.90;;;;;;5064954;28;20074;-78
2021/12/17 13:05:54;;;;;;;29.08;11.93;;;11.80;85.40;;;;;;5050207;28;20399;-78
2021/12/17 13:08:22;;;;;;;28.35;10.68;;;11.70;85.50;;;;;;5069891;28;20351;-78
2021/12/17 13:10:51;;;;;;;18.70;9.13;;;11.70;86.00;;;;;;5053119;28;20036;-78
2021/12/17 13:16:23;;;;;;;20.50;8.90;;;11.60;86.80;;;;;;5070101;28;20112;-76
2021/12/17 13:24:27;;;;;;;17.17;8.10;;;11.30;87.60;;;;;;5071050;28;20246;-76
2021/12/17 13:27:02;;;;;;;19.05;7.75;;;11.20;87.90;;;;;;5070349;28;20020;-78
2021/12/17 13:29:37;;;;;;;18.40;8.48;;;11.20;88.30;;;;;;5068110;28;20123;-79
2021/12/17 13:32:07;;;;;;;19.10;8.15;;;11.10;88.70;;;;;;5068729;28;20170;-77
2021/12/17 13:34:34;;;;;;;14.50;6.90;;;11.10;89.10;;;;;;5071227;28;20033;-75
2021/12/17 13:37:03;;;;;;;18.85;8.50;;;11.10;89.40;;;;;;5068101;28;20359;-77
2021/12/17 13:40:03;;;;;;;21.63;9.25;;;11.20;89.80;;;;;;5068449;28;20036;-77
2021/12/17 13:42:34;;;;;;;15.07;7.32;;;11.30;90.00;;;;;;5064425;28;20435;-77
2021/12/17 13:45:05;;;;;;;18.73;7.32;;;11.30;90.00;;;;;;5049941;28;20419;-77
2021/12/17 13:47:32;;;;;;;15.55;7.30;;;11.30;90.10;;;;;;5082472;28;20109;-77
2021/12/17 13:50:12;;;;;;;12.50;6.72;;;11.40;90.20;;;;;;5061797;28;20024;-76
2021/12/17 13:52:59;;;;;;;17.77;7.55;;;11.50;90.40;;;;;;5069162;28;20069;-77
2021/12/17 13:55:57;;;;;;;17.20;6.07;;;11.50;90.60;;;;;;5067117;28;20052;-78
2021/12/17 13:58:58;;;;;;;13.32;6.60;;;11.60;90.90;;;;;;5063165;28;20405;-78
2021/12/17 14:01:24;;;;;;;12.15;5.95;;;11.70;91.00;;;;;;5066528;28;20028;-77
2021/12/17 14:03:49;;;;;;;16.85;5.65;;;11.80;91.30;;;;;;5068773;28;20020;-76
2021/12/17 14:06:23;;;;;;;16.42;5.97;;;11.80;91.40;;;;;;5068772;28;20078;-77
2021/12/17 14:08:51;;;;;;;15.35;6.28;;;11.80;91.50;;;;;;5070018;28;20063;-77
2021/12/17 14:11:25;;;;;;;16.58;6.07;;;11.80;91.70;;;;;;5067326;28;20043;-76
2021/12/17 14:13:56;;;;;;;17.38;5.82;;;11.80;91.90;;;;;;5069663;28;20075;-73
2021/12/17 14:16:29;;;;;;;13.38;6.43;;;11.80;91.80;;;;;;5071289;28;20035;-76
2021/12/17 14:18:57;;;;;;;14.35;6.43;;;11.70;91.90;;;;;;5067443;28;20035;-77
2021/12/17 14:21:27;;;;;;;12.75;5.72;;;11.70;92.00;;;;;;5067986;28;20059;-77
2021/12/17 14:23:53;;;;;;;31.50;15.32;;;11.60;92.10;;;;;;5069276;28;20494;-77
2021/12/17 14:26:27;;;;;;;15.85;6.90;;;11.60;92.00;;;;;;5068938;28;20069;-78
2021/12/17 14:28:54;;;;;;;16.98;6.30;;;11.50;91.70;;;;;;5068828;28;20417;-76
2021/12/17 14:31:22;;;;;;;;;;;11.40;91.50;;;;;;5070156;28;20051;-77
2021/12/17 14:33:51;;;;;;;15.38;6.60;;;11.20;91.50;;;;;;5069431;28;19905;-76
2021/12/17 14:36:38;;;;;;;11.27;5.90;;;11.10;91.30;;;;;;5069240;28;20016;-77
2021/12/17 14:39:13;;;;;;;15.00;6.50;;;11.00;91.20;;;;;;5067764;28;20073;-77
2021/12/17 14:42:00;;;;;;;13.93;7.05;;;10.80;91.20;;;;;;5068002;28;20503;-76
2021/12/17 14:47:10;;;;;;;;;;;10.70;91.20;;;;;;5069447;28;19916;-77
2021/12/17 15:05:03;;;;;;;18.05;8.48;;;10.20;91.30;;;;;;5068494;28;20025;-77
2021/12/17 15:07:29;;;;;;;19.10;9.23;;;10.10;91.40;;;;;;5067240;28;20025;-76
2021/12/17 15:09:55;;;;;;;20.17;8.20;;;10.00;91.50;;;;;;5067130;28;20704;-78
2021/12/17 15:12:37;;;;;;;21.13;8.23;;;10.00;91.60;;;;;;5067288;28;20052;-76
2021/12/17 15:15:17;;;;;;;16.40;7.03;;;10.00;91.70;;;;;;5068374;28;20039;-75
2021/12/17 15:17:50;;;;;;;20.23;7.88;;;9.90;91.80;;;;;;5051324;28;20039;-76
2021/12/17 15:20:23;;;;;;;16.67;8.05;;;9.80;91.80;;;;;;5066439;28;20028;-76
2021/12/17 15:22:50;;;;;;;17.50;8.15;;;9.80;91.90;;;;;;5069946;28;20028;-74
2021/12/17 15:25:17;;;;;;;18.17;9.38;;;9.70;92.00;;;;;;5068891;28;20032;-76
2021/12/17 15:27:43;;;;;;;22.05;9.57;;;9.60;92.00;;;;;;5067063;28;20529;-76
2021/12/17 15:30:25;;;;;;;19.63;9.60;;;9.60;92.20;;;;;;5067740;28;20047;-74
2021/12/17 15:32:51;;;;;;;21.38;10.82;;;9.50;92.30;;;;;;5068653;28;20083;-76
2021/12/17 15:35:23;;;;;;;19.85;9.15;;;9.40;92.30;;;;;;5068693;28;20021;-77
2021/12/17 15:37:50;;;;;;;23.65;9.48;;;9.40;92.40;;;;;;5067587;28;20024;-78
2021/12/17 15:40:17;;;;;;;20.02;9.52;;;9.30;92.40;;;;;;5066741;28;20493;-77
2021/12/17 15:42:44;;;;;;;21.92;9.68;;;9.30;92.50;;;;;;5067094;28;20040;-76
2021/12/17 15:45:11;;;;;;;18.90;8.95;;;9.20;92.50;;;;;;5052973;28;20035;-77
2021/12/17 15:47:37;;;;;;;21.15;8.65;;;9.10;92.60;;;;;;5066728;28;20044;-77
2021/12/17 15:50:03;;;;;;;;;;;9.00;92.70;;;;;;5068847;28;20108;-77
2021/12/17 15:52:30;;;;;;;20.50;9.65;;;8.90;92.70;;;;;;5067915;28;19908;-76
2021/12/17 15:54:56;;;;;;;17.88;8.27;;;8.90;92.60;;;;;;5067179;28;20039;-77
2021/12/17 15:57:22;;;;;;;20.40;9.63;;;8.80;92.70;;;;;;5068604;28;20048;-75
2021/12/17 15:59:49;;;;;;;17.70;9.52;;;8.70;92.90;;;;;;5068513;28;20052;-76
2021/12/17 16:02:16;;;;;;;29.10;12.93;;;8.60;92.90;;;;;;5067246;28;20073;-76
2021/12/17 16:04:44;;;;;;;21.45;9.70;;;8.60;93.00;;;;;;5068012;28;20032;-76
2021/12/17 16:07:11;;;;;;;21.00;9.43;;;8.50;93.10;;;;;;5068163;28;20013;-75
2021/12/17 16:23:07;;;;;;;25.73;12.80;;;8.20;93.50;;;;;;5072001;28;20075;-74
2021/12/17 16:25:32;;;;;;;28.13;11.43;;;8.10;93.60;;;;;;5070496;28;20053;-75